Hovedside
METAR-TAF:

METAR-TAF

Lufthavner :

Stornoway, Skottland

breddegrad: 58-13N, lengdegrad: 006-19W, høyde over havet: 9 m

Gjeldene værobservasjon

Denne rapporten ble laget for 37 minutter siden, klokken 22:20 UTC
Vind 13 kt fra Nord-nordøst
Temperatur 12°C
Luftfuktighet 88%
Trykk 999 hPa
Sikt 10 km eller mer

METAR: EGPO 152220Z AUTO 03013KT 9999 OVC003/// 12/10 Q0999

Tid: 23:57 (22:57 UTC)

Varsel

Denne rapporten ble laget for 4 timer og 1 minutter siden, klokken 18:56 UTC
Varsel gyldig fra 15. klokken 21 UTC til 16. klokken 06 UTC
Vind 12 kt fra Nordøst
Sikt 10 km eller mer
Få skyer i en høyde av 300 ft
Spredte skyer i en høyde av 4000 ft
Midlertidig
fra 15. klokken 21 UTC til 16. klokken 06 UTC
Sikt: 3000 m
Brutte skyer i en høyde av 100 ft
regn, duskregn, dis,

TAF: EGPO 151856Z 1521/1606 04012KT 9999 FEW003 SCT040 TEMPO 1521/1606 3000 RADZ BR BKN001

Værobservasjoner og værvarsel for over 4000 flyplasser (METAR- og TAF-rapporter).

Tilgjengelige stasjoner er representert av de røde og gule prikkene på kartet.

Hold musepekeren over prikken for å se navnet på stasjonen.

Klikk så for å se værobservasjoner og -varsler.

For å forandre kartet kan du klikke på den grønne knappen med svart kryss for å zoome inn, på den grønne knappen med strek for å zoome ut, eller på de grønne pilene for å se tilstøtende kart.


METAR-TAF: